Time;durP1;ratioP1;P1;durP2;ratioP2;P2;SDS_P1;SDS_P2;PMS_P1;PMS_P2;Temp;Humidity;BMP_temperature;BMP_pressure;BME280_temperature;BME280_humidity;BME280_pressure;Samples;Min_cycle;Max_cycle;Signal;HPM_P1;HPM_P2
2023/02/17 00:01:55;;;;;;;40.63;23.38;;;;;;;3.64;48.23;95853.13;5108336;28;20553;-77
2023/02/17 00:04:21;;;;;;;40.85;22.95;;;;;;;3.60;48.60;95852.31;5089624;28;20032;-78
2023/02/17 00:06:46;;;;;;;42.85;22.08;;;;;;;3.56;48.57;95848.00;5108131;27;20026;-77
2023/02/17 00:09:11;;;;;;;39.33;22.65;;;;;;;3.54;48.74;95855.72;5106943;28;20023;-77
2023/02/17 00:11:37;;;;;;;44.05;24.92;;;;;;;3.43;48.92;95850.91;5109710;28;20115;-78
2023/02/17 00:14:02;;;;;;;44.10;22.13;;;;;;;3.44;48.93;95852.50;5123127;28;20023;-77
2023/02/17 00:16:28;;;;;;;38.53;21.50;;;;;;;3.41;48.86;95855.94;5121020;28;20089;-76
2023/02/17 00:18:57;;;;;;;38.65;20.42;;;;;;;3.42;49.34;95854.78;5109208;28;20101;-79
2023/02/17 00:21:24;;;;;;;36.28;20.02;;;;;;;3.49;49.17;95853.31;5107616;28;20039;-80
2023/02/17 00:23:50;;;;;;;32.60;19.25;;;;;;;3.50;49.47;95841.28;5106374;28;20081;-79
2023/02/17 00:26:16;;;;;;;39.60;22.35;;;;;;;3.46;48.90;95841.25;5089452;28;20541;-79
2023/02/17 00:28:42;;;;;;;37.13;21.25;;;;;;;3.46;49.06;95828.44;5108308;28;20083;-79
2023/02/17 00:31:10;;;;;;;35.50;18.88;;;;;;;3.50;48.84;95833.94;5109029;28;20028;-79
2023/02/17 00:33:36;;;;;;;41.95;19.35;;;;;;;3.48;49.25;95828.06;5105979;28;20038;-79
2023/02/17 00:36:07;;;;;;;35.67;18.45;;;;;;;3.44;49.38;95824.53;5089825;28;20027;-79
2023/02/17 00:38:33;;;;;;;36.70;19.52;;;;;;;3.40;49.23;95823.72;5105881;28;20410;-80
2023/02/17 00:40:58;;;;;;;32.03;16.83;;;;;;;3.46;49.68;95827.66;5089199;28;20385;-78
2023/02/17 00:43:24;;;;;;;34.58;19.70;;;;;;;3.42;49.10;95827.63;5087953;28;20044;-78
2023/02/17 00:45:49;;;;;;;39.67;20.63;;;;;;;3.39;49.13;95833.03;5105240;28;20020;-79
2023/02/17 00:48:16;;;;;;;36.50;21.05;;;;;;;3.36;49.20;95828.31;5107716;28;20031;-78
2023/02/17 00:50:42;;;;;;;41.65;21.25;;;;;;;3.28;49.38;95832.09;5107070;28;20096;-77
2023/02/17 00:53:07;;;;;;;36.08;19.52;;;;;;;3.25;49.74;95825.44;5106061;28;20549;-77
2023/02/17 00:55:33;;;;;;;38.95;20.02;;;;;;;3.23;49.54;95830.47;5106357;28;20038;-78
2023/02/17 00:57:58;;;;;;;44.03;21.23;;;;;;;3.20;49.72;95833.91;5105839;28;20031;-78
2023/02/17 01:00:24;;;;;;;37.53;20.77;;;;;;;3.17;49.91;95823.78;5088332;28;20622;-79
2023/02/17 01:02:49;;;;;;;48.05;24.42;;;;;;;3.16;50.16;95819.50;5105615;28;20030;-79
2023/02/17 01:05:14;;;;;;;43.00;23.70;;;;;;;3.13;50.15;95822.94;5105708;28;20031;-78
2023/02/17 01:07:40;;;;;;;45.15;25.10;;;;;;;3.10;50.34;95821.75;5105032;28;20035;-78
2023/02/17 01:10:07;;;;;;;50.75;24.25;;;;;;;3.14;50.55;95816.38;5107161;27;20028;-79
2023/02/17 01:12:32;;;;;;;53.83;25.08;;;;;;;3.11;50.49;95823.31;5087901;28;20410;-80
2023/02/17 01:14:58;;;;;;;45.83;24.48;;;;;;;3.01;50.56;95825.88;5106155;28;20030;-79
2023/02/17 01:17:24;;;;;;;46.97;24.15;;;;;;;2.97;50.69;95812.25;5105223;28;20020;-79
2023/02/17 01:19:49;;;;;;;48.85;24.40;;;;;;;2.90;50.76;95812.16;5105421;28;20026;-78
2023/02/17 01:22:15;;;;;;;48.47;25.92;;;;;;;2.93;50.63;95811.44;5105529;28;20016;-77
2023/02/17 01:24:40;;;;;;;51.55;24.23;;;;;;;2.89;50.75;95805.16;5106540;28;20477;-78
2023/02/17 01:27:06;;;;;;;47.92;23.50;;;;;;;2.89;50.93;95807.88;5110547;28;20027;-78
2023/02/17 01:29:31;;;;;;;44.58;23.23;;;;;;;2.84;51.08;95808.97;5105003;28;20042;-78
2023/02/17 01:31:56;;;;;;;42.08;21.88;;;;;;;2.89;51.44;95807.88;5105664;28;20141;-77
2023/02/17 01:34:22;;;;;;;48.83;22.60;;;;;;;2.87;51.21;95802.03;5104598;28;20114;-79
2023/02/17 01:36:48;;;;;;;41.78;21.10;;;;;;;2.93;51.24;95804.06;5107349;28;20023;-79
2023/02/17 01:39:14;;;;;;;39.75;19.50;;;;;;;2.85;50.90;95786.09;5087880;28;20398;-78
2023/02/17 01:41:40;;;;;;;40.38;19.17;;;;;;;2.86;51.00;95801.22;5104984;28;20098;-79
2023/02/17 01:44:11;;;;;;;44.35;22.00;;;;;;;2.90;51.03;95807.50;5104851;28;20153;-79
2023/02/17 01:46:37;;;;;;;36.25;19.55;;;;;;;2.89;50.73;95816.81;5087610;28;20054;-79
2023/02/17 01:49:12;;;;;;;42.58;21.63;;;;;;;2.90;50.83;95814.88;5105245;28;20038;-77
2023/02/17 01:51:37;;;;;;;42.15;22.00;;;;;;;2.91;50.71;95803.63;5104618;28;20061;-79
2023/02/17 01:54:20;;;;;;;38.40;20.10;;;;;;;2.88;51.03;95806.31;5088314;28;20171;-79
2023/02/17 01:56:47;;;;;;;41.58;19.30;;;;;;;2.88;51.18;95800.88;5087595;28;20059;-78
2023/02/17 01:59:18;;;;;;;36.92;19.95;;;;;;;2.89;51.31;95805.94;5104797;28;20035;-78
2023/02/17 02:01:44;;;;;;;36.08;19.70;;;;;;;2.84;51.15;95795.38;5106593;28;20031;-78
2023/02/17 02:04:09;;;;;;;39.00;19.70;;;;;;;2.82;51.12;95792.25;5104053;28;20443;-78
2023/02/17 02:06:37;;;;;;;35.70;20.00;;;;;;;2.91;50.95;95805.56;5105498;28;20039;-78
2023/02/17 02:09:09;;;;;;;34.92;19.02;;;;;;;2.82;51.44;95800.41;5087038;28;20019;-77
2023/02/17 02:11:34;;;;;;;44.75;19.45;;;;;;;2.82;51.37;95788.75;5088842;28;20024;-79
2023/02/17 02:14:00;;;;;;;30.70;18.20;;;;;;;2.82;51.48;95784.13;5104317;28;20042;-77
2023/02/17 02:16:36;;;;;;;30.58;16.13;;;;;;;2.85;51.68;95791.50;5104715;28;20028;-77
2023/02/17 02:19:02;;;;;;;31.50;16.38;;;;;;;2.80;51.58;95797.25;5106312;28;20035;-79
2023/02/17 02:21:34;;;;;;;31.83;16.65;;;;;;;2.86;51.72;95792.28;5105819;28;20026;-79
2023/02/17 02:24:09;;;;;;;32.90;16.25;;;;;;;2.86;51.58;95787.63;5108573;28;20023;-78
2023/02/17 02:27:14;;;;;;;31.13;17.50;;;;;;;2.82;51.64;95788.75;5106125;28;20474;-77
2023/02/17 02:30:03;;;;;;;31.60;15.88;;;;;;;2.80;51.54;95782.91;5087547;28;20032;-78
2023/02/17 02:32:38;;;;;;;34.38;16.25;;;;;;;2.82;51.61;95788.75;5111536;28;20486;-77
2023/02/17 02:35:27;;;;;;;34.80;15.88;;;;;;;2.84;51.52;95787.22;5101946;28;20044;-76
2023/02/17 02:38:14;;;;;;;31.20;16.33;;;;;;;2.85;51.42;95786.09;5102791;28;20039;-78
2023/02/17 02:40:43;;;;;;;31.60;17.02;;;;;;;2.84;51.56;95789.16;5106988;28;20589;-76
2023/02/17 02:43:09;;;;;;;33.60;18.13;;;;;;;2.83;51.26;95799.25;5103547;28;20407;-78
2023/02/17 02:45:34;;;;;;;31.73;17.15;;;;;;;2.80;51.41;95785.59;5104792;28;20035;-78
2023/02/17 02:48:00;;;;;;;36.15;18.25;;;;;;;2.75;51.55;95794.06;5103801;28;20293;-76
2023/02/17 02:50:44;;;;;;;31.67;16.50;;;;;;;2.80;51.50;95796.47;5106290;28;20038;-76
2023/02/17 02:53:34;;;;;;;34.80;16.23;;;;;;;2.86;51.52;95795.00;5105449;28;20034;-79
2023/02/17 02:56:08;;;;;;;27.15;15.30;;;;;;;2.87;51.59;95794.66;5104995;28;20043;-77
2023/02/17 02:58:47;;;;;;;30.42;15.75;;;;;;;2.80;51.86;95786.38;5106669;28;20130;-77
2023/02/17 03:01:25;;;;;;;31.05;15.98;;;;;;;2.79;51.55;95784.84;5104043;28;20057;-79
2023/02/17 03:04:03;;;;;;;28.65;17.13;;;;;;;2.86;51.11;95798.50;5087564;28;20501;-77
2023/02/17 03:06:36;;;;;;;29.33;17.23;;;;;;;2.79;51.28;95790.25;5106172;28;20152;-77
2023/02/17 03:09:06;;;;;;;32.22;16.13;;;;;;;2.90;51.28;95793.13;5090084;28;20030;-78
2023/02/17 03:11:32;;;;;;;29.73;16.45;;;;;;;2.88;51.44;95781.88;5108889;28;20028;-77
2023/02/17 03:14:02;;;;;;;31.05;16.10;;;;;;;2.88;51.57;95781.88;5106672;28;20035;-78
2023/02/17 03:16:27;;;;;;;34.90;18.10;;;;;;;2.88;51.15;95796.22;5108738;28;20039;-79
2023/02/17 03:18:53;;;;;;;36.67;18.30;;;;;;;2.77;51.20;95783.63;5110362;28;20030;-78
2023/02/17 03:21:18;;;;;;;33.20;18.40;;;;;;;2.82;51.54;95794.97;5112492;28;20496;-77
2023/02/17 03:23:43;;;;;;;37.28;18.55;;;;;;;2.72;51.61;95803.75;5109539;28;20032;-76
2023/02/17 03:26:09;;;;;;;39.22;18.50;;;;;;;2.73;51.42;95801.81;5106823;28;20155;-78
2023/02/17 03:28:34;;;;;;;41.10;19.77;;;;;;;2.69;51.54;95807.16;5108273;28;20378;-78
2023/02/17 03:31:00;;;;;;;34.72;18.73;;;;;;;2.66;51.80;95800.56;5107137;28;20104;-77
2023/02/17 03:33:25;;;;;;;39.03;20.10;;;;;;;2.62;51.94;95793.50;5090813;28;20088;-76
2023/02/17 03:35:50;;;;;;;42.95;21.48;;;;;;;2.57;51.77;95794.59;5107862;28;20032;-77
2023/02/17 03:38:16;;;;;;;33.53;18.75;;;;;;;2.56;51.86;95798.44;5108934;27;20039;-78
2023/02/17 03:40:41;;;;;;;30.88;17.83;;;;;;;2.51;51.94;95796.03;5090457;28;20023;-79
2023/02/17 03:43:06;;;;;;;38.95;20.08;;;;;;;2.44;52.00;95795.94;5106942;28;20039;-77
2023/02/17 03:45:35;;;;;;;36.92;20.08;;;;;;;2.48;51.82;95799.50;5090088;28;20043;-77
2023/02/17 03:48:01;;;;;;;41.30;21.00;;;;;;;2.51;51.86;95801.47;5106287;28;20408;-79
2023/02/17 03:50:26;;;;;;;35.67;19.40;;;;;;;2.46;51.92;95779.28;5090597;28;20043;-78
2023/02/17 03:52:52;;;;;;;37.72;18.73;;;;;;;2.46;51.94;95776.56;5106362;28;20035;-78
2023/02/17 03:55:17;;;;;;;30.75;17.50;;;;;;;2.51;51.98;95792.53;5090059;28;20108;-79
2023/02/17 03:57:42;;;;;;;32.63;17.42;;;;;;;2.44;51.76;95779.66;5106663;28;20023;-78
2023/02/17 04:00:08;;;;;;;34.72;19.02;;;;;;;2.53;51.88;95792.97;5106501;28;20103;-79
2023/02/17 04:02:34;;;;;;;34.03;19.30;;;;;;;2.51;52.04;95798.75;5107110;28;20019;-78
2023/02/17 04:04:59;;;;;;;35.22;18.55;;;;;;;2.54;51.87;95797.25;5106144;28;20539;-78
2023/02/17 04:07:24;;;;;;;33.83;18.75;;;;;;;2.56;51.73;95789.53;5108720;28;20098;-78
2023/02/17 04:09:50;;;;;;;33.67;18.88;;;;;;;2.51;51.78;95792.53;5107301;28;20019;-78
2023/02/17 04:12:15;;;;;;;36.45;18.10;;;;;;;2.60;51.61;95802.00;5107079;28;20498;-79
2023/02/17 04:14:41;;;;;;;34.90;18.20;;;;;;;2.59;51.65;95791.53;5105991;28;20027;-79
2023/02/17 04:17:06;;;;;;;34.90;18.15;;;;;;;2.60;51.84;95787.66;5108919;28;20032;-80
2023/02/17 04:19:32;;;;;;;35.30;18.77;;;;;;;2.61;51.69;95794.66;5108407;28;20031;-78
2023/02/17 04:21:58;;;;;;;31.33;16.77;;;;;;;2.63;51.82;95795.06;5106961;28;20461;-78
2023/02/17 04:24:23;;;;;;;33.33;17.58;;;;;;;2.60;51.87;95796.56;5107253;28;20030;-79
2023/02/17 04:26:49;;;;;;;35.22;17.63;;;;;;;2.59;51.93;95792.31;5107128;28;20415;-77
2023/02/17 04:29:14;;;;;;;32.22;16.73;;;;;;;2.60;51.77;95801.22;5106961;28;20027;-78
2023/02/17 04:31:39;;;;;;;33.80;16.75;;;;;;;2.54;51.93;95789.13;5106809;28;20039;-78
2023/02/17 04:34:05;;;;;;;35.63;17.83;;;;;;;2.55;52.02;95798.81;5106381;28;20046;-78
2023/02/17 04:36:30;;;;;;;32.33;18.23;;;;;;;2.55;51.95;95799.59;5105879;28;20070;-77
2023/02/17 04:38:56;;;;;;;35.30;18.25;;;;;;;2.52;52.18;95791.38;5107692;28;20082;-79
2023/02/17 04:41:21;;;;;;;31.95;16.88;;;;;;;2.55;52.31;95796.88;5105698;28;20544;-79
2023/02/17 04:43:46;;;;;;;33.75;18.05;;;;;;;2.52;52.25;95800.31;5105648;28;20047;-78
2023/02/17 04:46:12;;;;;;;36.03;18.95;;;;;;;2.49;52.30;95803.00;5107648;27;20096;-78
2023/02/17 04:48:37;;;;;;;35.78;19.83;;;;;;;2.49;52.07;95805.69;5105456;28;20063;-77
2023/02/17 04:51:04;;;;;;;34.35;18.55;;;;;;;2.52;52.25;95791.38;5105982;28;20043;-78
2023/02/17 04:53:29;;;;;;;36.63;19.27;;;;;;;2.51;52.22;95785.19;5087879;28;20080;-77
2023/02/17 04:55:55;;;;;;;36.88;18.38;;;;;;;2.50;52.53;95794.47;5110939;28;20071;-78
2023/02/17 04:58:20;;;;;;;34.17;17.13;;;;;;;2.44;52.58;95787.78;5113511;28;20035;-79
2023/02/17 05:00:47;;;;;;;37.85;18.40;;;;;;;2.35;52.52;95784.53;5106457;28;20309;-79
2023/02/17 05:03:12;;;;;;;30.88;17.40;;;;;;;2.37;52.40;95787.69;5089209;28;20046;-79
2023/02/17 05:05:39;;;;;;;33.28;17.80;;;;;;;2.37;52.77;95812.09;5088522;28;20527;-78
2023/02/17 05:08:05;;;;;;;32.42;18.58;;;;;;;2.35;52.72;95819.81;5106527;28;20027;-78
2023/02/17 05:10:31;;;;;;;36.58;19.27;;;;;;;2.33;52.82;95822.09;5104956;28;20463;-79
2023/02/17 05:12:56;;;;;;;34.00;17.45;;;;;;;2.19;53.29;95828.09;5106260;28;20452;-78
2023/02/17 05:15:21;;;;;;;37.80;19.17;;;;;;;2.18;53.31;95820.28;5108579;28;20482;-79
2023/02/17 05:17:47;;;;;;;36.83;17.63;;;;;;;2.20;53.41;95829.66;5105981;28;20024;-79
2023/02/17 05:20:12;;;;;;;35.53;18.92;;;;;;;2.18;53.45;95831.94;5106981;28;20083;-79
2023/02/17 05:22:38;;;;;;;37.15;19.55;;;;;;;2.16;53.27;95841.56;5104948;28;20032;-77
2023/02/17 05:25:04;;;;;;;36.13;20.80;;;;;;;2.16;53.22;95839.63;5105659;28;20085;-78
2023/02/17 05:27:30;;;;;;;36.35;20.20;;;;;;;2.16;53.39;95839.63;5104840;28;20340;-77
2023/02/17 05:29:55;;;;;;;31.58;18.67;;;;;;;2.16;53.39;95834.22;5107309;27;20058;-77
2023/02/17 05:32:22;;;;;;;31.23;18.70;;;;;;;2.17;53.86;95841.22;5104002;28;20122;-78
2023/02/17 05:34:47;;;;;;;38.00;19.52;;;;;;;2.24;54.01;95846.78;5105630;28;20059;-78
2023/02/17 05:37:12;;;;;;;41.28;22.20;;;;;;;2.24;53.76;95838.63;5087760;28;20077;-79
2023/02/17 05:39:38;;;;;;;39.72;21.58;;;;;;;2.16;54.02;95845.06;5104875;28;20031;-77
2023/02/17 05:42:03;;;;;;;47.22;23.33;;;;;;;2.20;54.24;95858.72;5106373;28;20043;-79
2023/02/17 05:44:29;;;;;;;43.28;21.50;;;;;;;2.22;54.39;95857.19;5105794;28;20478;-79
2023/02/17 05:46:55;;;;;;;41.78;21.63;;;;;;;2.23;54.02;95855.25;5105673;28;20031;-80
2023/02/17 05:49:20;;;;;;;38.40;21.30;;;;;;;2.32;54.16;95853.88;5104189;28;20324;-79
2023/02/17 05:51:45;;;;;;;45.40;22.23;;;;;;;2.36;53.83;95867.53;5107273;28;20096;-78
2023/02/17 05:54:12;;;;;;;41.33;22.95;;;;;;;2.40;53.94;95857.50;5104330;28;20030;-79
2023/02/17 05:56:39;;;;;;;45.25;23.65;;;;;;;2.48;53.83;95864.63;5106194;28;20020;-80
2023/02/17 05:59:05;;;;;;;37.50;20.77;;;;;;;2.56;53.38;95866.31;5105098;28;20038;-79
2023/02/17 06:01:30;;;;;;;38.67;20.98;;;;;;;2.62;53.16;95859.44;5105852;28;20027;-80
2023/02/17 06:03:57;;;;;;;39.63;20.00;;;;;;;2.67;52.88;95861.06;5088893;28;20345;-78
2023/02/17 06:06:23;;;;;;;38.85;20.38;;;;;;;2.69;52.62;95857.97;5086643;28;20118;-80
2023/02/17 06:08:48;;;;;;;43.53;20.85;;;;;;;2.80;52.46;95856.22;5106926;28;20084;-79
2023/02/17 06:11:13;;;;;;;38.40;20.05;;;;;;;2.88;52.25;95857.91;5106998;28;20461;-79
2023/02/17 06:13:39;;;;;;;37.55;19.88;;;;;;;2.92;51.81;95856.00;5109161;28;20050;-81
2023/02/17 06:16:05;;;;;;;40.83;20.70;;;;;;;3.02;51.97;95862.75;5105124;28;20091;-82
2023/02/17 06:18:30;;;;;;;35.53;19.25;;;;;;;3.07;51.65;95863.25;5104952;28;20019;-81
2023/02/17 06:20:56;;;;;;;41.88;19.48;;;;;;;3.12;51.50;95862.94;5106776;28;20038;-79
2023/02/17 06:23:25;;;;;;;41.30;18.60;;;;;;;3.22;51.18;95866.97;5104382;28;20035;-82
2023/02/17 06:25:51;;;;;;;34.90;19.02;;;;;;;3.31;50.95;95867.47;5105619;28;20035;-79
2023/02/17 06:28:16;;;;;;;33.60;20.20;;;;;;;3.38;50.93;95864.84;5105147;28;20027;-79
2023/02/17 06:30:42;;;;;;;34.90;19.70;;;;;;;3.47;51.10;95878.94;5106046;28;20038;-80
2023/02/17 06:33:07;;;;;;;39.17;20.70;;;;;;;3.52;50.90;95872.41;5106875;28;20047;-79
2023/02/17 06:35:33;;;;;;;37.17;19.27;;;;;;;3.65;50.23;95878.41;5105625;28;20095;-80
2023/02/17 06:37:58;;;;;;;37.33;22.35;;;;;;;3.73;50.29;95883.56;5106699;28;20054;-80
2023/02/17 06:40:24;;;;;;;45.22;21.98;;;;;;;3.80;50.50;95887.53;5105536;28;20478;-81
2023/02/17 06:42:49;;;;;;;42.63;22.50;;;;;;;3.86;50.04;95884.13;5090155;28;20096;-80
2023/02/17 06:45:15;;;;;;;39.55;22.40;;;;;;;3.92;50.21;95890.00;5109702;28;20031;-79
2023/02/17 06:47:40;;;;;;;35.13;22.20;;;;;;;3.94;49.56;95883.03;5109591;28;20030;-81
2023/02/17 06:50:06;;;;;;;35.13;21.95;;;;;;;4.05;49.63;95885.09;5090875;28;20027;-78
2023/02/17 06:52:32;;;;;;;40.22;23.52;;;;;;;4.15;49.21;95887.16;5109400;28;20024;-81
2023/02/17 06:54:57;;;;;;;38.50;22.80;;;;;;;4.25;48.98;95883.78;5110155;28;20051;-80
2023/02/17 06:57:23;;;;;;;51.78;28.23;;;;;;;4.36;49.19;95890.13;5109853;28;20047;-78
2023/02/17 06:59:49;;;;;;;63.63;34.17;;;;;;;4.53;48.86;95894.19;5111023;28;20020;-79
2023/02/17 07:02:14;;;;;;;74.03;38.22;;;;;;;4.64;48.61;95886.88;5109219;28;20030;-80
2023/02/17 07:04:40;;;;;;;75.50;41.47;;;;;;;4.75;48.75;95890.47;5110883;28;20548;-81
2023/02/17 07:07:06;;;;;;;74.65;43.53;;;;;;;4.89;48.51;95881.66;5113387;28;20539;-81
2023/02/17 07:09:32;;;;;;;70.82;41.65;;;;;;;5.05;48.14;95884.13;5120357;28;20055;-80
2023/02/17 07:11:57;;;;;;;67.70;40.85;;;;;;;5.16;47.82;95879.53;5116508;28;20085;-80
2023/02/17 07:14:23;;;;;;;72.38;40.92;;;;;;;5.32;47.59;95887.41;5117434;28;20505;-79
2023/02/17 07:16:49;;;;;;;67.97;41.60;;;;;;;5.49;47.43;95894.91;5130169;28;20039;-78
2023/02/17 07:19:15;;;;;;;73.25;40.28;;;;;;;5.64;47.01;95893.06;5112001;28;20470;-81
2023/02/17 07:21:41;;;;;;;84.35;47.58;;;;;;;5.79;47.11;95899.38;5109651;28;20500;-79
2023/02/17 07:24:06;;;;;;;87.35;50.67;;;;;;;5.92;46.79;95900.66;5108860;27;20201;-80
2023/02/17 07:26:37;;;;;;;86.78;51.53;;;;;;;6.07;46.67;95904.97;5109524;28;20427;-78
2023/02/17 07:29:03;;;;;;;91.72;55.40;;;;;;;6.23;46.16;95898.41;5107298;28;20024;-80
2023/02/17 07:31:29;;;;;;;92.13;55.00;;;;;;;6.38;46.01;95906.28;5109499;28;20540;-79
2023/02/17 07:33:54;;;;;;;91.03;50.97;;;;;;;6.59;45.58;95902.78;5108557;28;20028;-79
2023/02/17 07:36:20;;;;;;;82.80;46.80;;;;;;;6.77;45.96;95896.59;5094078;28;20034;-79
2023/02/17 07:38:45;;;;;;;75.10;43.38;;;;;;;6.93;45.40;95903.22;5107926;28;20513;-82
2023/02/17 07:41:16;;;;;;;84.15;45.22;;;;;;;7.12;45.06;95918.50;5108192;28;20153;-85
2023/02/17 07:43:42;;;;;;;73.32;41.55;;;;;;;7.30;44.30;95907.53;5106733;28;20048;-81
2023/02/17 07:46:08;;;;;;;67.70;38.40;;;;;;;7.56;43.51;95909.06;5107044;28;20030;-81
2023/02/17 07:48:34;;;;;;;59.83;35.83;;;;;;;7.75;43.08;95901.63;5109409;28;20023;-77
2023/02/17 07:51:08;;;;;;;65.15;36.97;;;;;;;7.95;42.71;95899.97;5106600;28;20055;-77
2023/02/17 07:53:34;;;;;;;61.40;36.75;;;;;;;8.16;42.27;95908.13;5108021;28;20124;-80
2023/02/17 07:56:04;;;;;;;63.00;38.10;;;;;;;8.32;41.81;95906.91;5106981;28;20080;-80
2023/02/17 07:58:35;;;;;;;63.00;38.53;;;;;;;8.55;41.41;95903.69;5090224;28;20544;-79
2023/02/17 08:01:17;;;;;;;64.20;39.08;;;;;;;8.88;40.67;95908.53;5107406;28;20043;-81
2023/02/17 08:03:43;;;;;;;61.95;35.92;;;;;;;9.17;40.22;95900.09;5109173;28;20027;-80
2023/02/17 08:06:14;;;;;;;65.20;38.58;;;;;;;9.48;39.46;95899.06;5111805;28;20470;-81
2023/02/17 08:14:08;;;;;;;66.68;36.53;;;;;;;10.57;37.79;95902.97;5108459;28;19936;-80
2023/02/17 08:16:33;;;;;;;61.70;37.65;;;;;;;10.98;37.38;95911.03;5107800;28;20049;-80
2023/02/17 08:18:59;;;;;;;66.15;38.88;;;;;;;11.40;36.92;95906.81;5107291;28;20030;-80
2023/02/17 08:21:26;;;;;;;59.80;33.92;;;;;;;11.88;35.99;95900.13;5107039;28;20442;-80
2023/02/17 08:23:52;;;;;;;54.25;31.08;;;;;;;12.32;35.23;95900.84;5107237;28;20107;-81
2023/02/17 08:26:19;;;;;;;42.80;25.65;;;;;;;12.81;33.49;95895.47;5089047;28;20027;-80
2023/02/17 08:28:45;;;;;;;33.40;18.30;;;;;;;13.24;31.40;95887.00;5106365;28;20027;-80
2023/02/17 08:31:25;;;;;;;19.30;11.75;;;;;;;13.64;29.82;95894.31;5106514;28;20024;-81
2023/02/17 08:33:51;;;;;;;15.18;8.13;;;;;;;14.02;27.94;95895.28;5088993;28;20038;-80
2023/02/17 08:36:19;;;;;;;11.45;6.97;;;;;;;14.34;27.63;95894.41;5108554;28;20016;-80
2023/02/17 08:38:49;;;;;;;12.27;6.68;;;;;;;14.72;26.99;95895.72;5106317;28;20140;-80
2023/02/17 08:41:16;;;;;;;8.68;6.20;;;;;;;14.86;26.52;95887.03;5111402;28;20069;-82
2023/02/17 08:43:42;;;;;;;11.55;6.38;;;;;;;15.39;26.40;95898.41;5108717;28;20322;-75
2023/02/17 08:46:09;;;;;;;12.88;7.18;;;;;;;15.65;25.65;95905.50;5107489;28;20506;-79
2023/02/17 08:48:35;;;;;;;11.23;6.50;;;;;;;16.03;24.49;95893.50;5106442;28;20507;-78
2023/02/17 08:51:01;;;;;;;12.15;6.63;;;;;;;16.46;24.42;95898.31;5107256;28;20034;-79
2023/02/17 08:53:26;;;;;;;11.45;6.43;;;;;;;16.78;23.90;95890.81;5108337;28;20067;-80
2023/02/17 08:55:52;;;;;;;12.05;6.82;;;;;;;17.23;23.17;95893.03;5106990;28;20023;-79
2023/02/17 08:58:17;;;;;;;12.35;6.82;;;;;;;17.58;22.92;95890.03;5108096;28;20486;-78
2023/02/17 09:00:43;;;;;;;10.50;6.03;;;;;;;17.95;21.66;95890.13;5109913;28;20031;-77
2023/02/17 09:03:09;;;;;;;11.27;6.78;;;;;;;18.14;20.94;95894.47;5109585;28;20047;-80
2023/02/17 09:05:35;;;;;;;9.40;6.28;;;;;;;18.50;20.61;95890.88;5106444;28;20023;-79
2023/02/17 09:08:00;;;;;;;9.50;6.30;;;;;;;18.86;20.53;95894.88;5106558;28;20032;-78
2023/02/17 09:10:26;;;;;;;10.18;6.22;;;;;;;19.25;19.79;95889.47;5107851;28;20023;-79
2023/02/17 09:12:51;;;;;;;7.75;5.90;;;;;;;19.48;19.57;95877.59;5106794;28;20030;-78
2023/02/17 09:15:17;;;;;;;8.43;5.90;;;;;;;19.80;19.04;95884.41;5106222;28;20039;-78
2023/02/17 09:17:42;;;;;;;11.40;6.70;;;;;;;20.06;19.24;95886.69;5106570;27;20028;-78
2023/02/17 09:20:09;;;;;;;11.10;6.13;;;;;;;20.34;18.56;95890.81;5107736;28;20578;-79
2023/02/17 09:22:34;;;;;;;8.73;5.68;;;;;;;20.47;17.86;95889.81;5105806;28;20443;-78
2023/02/17 09:25:00;;;;;;;9.27;6.30;;;;;;;20.60;17.95;95896.69;5105702;28;20440;-79
2023/02/17 09:27:25;;;;;;;12.15;5.90;;;;;;;21.02;17.72;95897.66;5107238;28;20103;-78
2023/02/17 09:29:50;;;;;;;6.97;5.35;;;;;;;21.35;17.42;95889.06;5107254;28;20099;-78
2023/02/17 09:32:16;;;;;;;10.68;5.97;;;;;;;21.73;17.05;95885.28;5116643;28;20038;-76
2023/02/17 09:34:48;;;;;;;10.18;6.03;;;;;;;22.19;16.67;95890.22;5109048;28;20116;-79
2023/02/17 09:37:16;;;;;;;8.35;5.70;;;;;;;23.07;16.38;95893.72;5108055;28;20043;-79
2023/02/17 09:39:41;;;;;;;10.30;5.07;;;;;;;23.71;15.21;95884.00;5106119;28;20027;-78
2023/02/17 09:42:16;;;;;;;10.52;6.43;;;;;;;24.55;14.72;95890.78;5105605;28;20043;-79
2023/02/17 09:44:44;;;;;;;9.48;6.35;;;;;;;25.59;14.16;95891.91;5107756;28;20023;-80
2023/02/17 09:47:35;;;;;;;10.55;6.18;;;;;;;26.08;13.49;95897.97;5106928;28;20481;-78
2023/02/17 09:50:17;;;;;;;11.10;6.40;;;;;;;26.70;13.32;95890.78;5106148;28;20502;-79
2023/02/17 09:52:55;;;;;;;7.95;6.07;;;;;;;28.29;12.34;95892.53;5107152;28;20077;-79
2023/02/17 09:55:37;;;;;;;10.32;5.93;;;;;;;30.18;11.58;95895.06;5107121;28;20034;-80
2023/02/17 09:58:10;;;;;;;12.17;7.23;;;;;;;30.88;11.19;95895.41;5113391;28;20517;-79
2023/02/17 10:00:43;;;;;;;9.98;6.57;;;;;;;32.48;9.73;95890.38;5107350;28;20262;-81
2023/02/17 10:03:15;;;;;;;12.30;6.65;;;;;;;32.71;9.30;95884.78;5106646;28;20015;-80
2023/02/17 10:05:46;;;;;;;7.70;6.20;;;;;;;33.92;8.89;95885.63;5105558;28;20035;-80
2023/02/17 10:08:23;;;;;;;13.73;6.20;;;;;;;34.71;8.37;95891.38;5107096;28;20051;-80
2023/02/17 10:10:54;;;;;;;9.63;5.80;;;;;;;35.30;7.76;95888.06;5106436;28;20410;-81
2023/02/17 10:13:21;;;;;;;7.95;5.30;;;;;;;35.18;7.35;95882.03;5106026;28;20032;-81
2023/02/17 10:15:51;;;;;;;11.07;6.50;;;;;;;35.33;7.47;95884.81;5108399;28;20062;-83
2023/02/17 10:18:17;;;;;;;14.23;7.43;;;;;;;35.99;7.10;95879.00;5110613;28;20027;-85
2023/02/17 10:20:51;;;;;;;8.95;6.68;;;;;;;35.57;6.95;95865.41;5112597;28;20050;-83
2023/02/17 10:23:22;;;;;;;7.05;6.00;;;;;;;35.95;6.96;95870.81;5109673;28;20482;-83
2023/02/17 10:26:12;;;;;;;10.43;5.70;;;;;;;36.25;6.79;95860.44;5110359;28;20478;-79
2023/02/17 10:28:41;;;;;;;10.80;6.30;;;;;;;36.68;6.61;95864.72;5110110;28;20035;-82
2023/02/17 10:31:38;;;;;;;11.88;7.18;;;;;;;36.81;6.74;95852.16;5110856;28;20027;-83
2023/02/17 10:34:15;;;;;;;7.78;6.30;;;;;;;37.48;6.63;95849.72;5096731;28;20054;-82
2023/02/17 10:36:59;;;;;;;7.50;5.28;;;;;;;37.74;6.27;95850.28;5111456;28;20027;-82
2023/02/17 10:39:48;;;;;;;7.60;5.78;;;;;;;37.71;5.49;95840.75;5108178;28;20451;-84
2023/02/17 10:42:30;;;;;;;7.65;4.80;;;;;;;36.67;5.95;95832.47;5110271;28;20701;-82
2023/02/17 10:45:02;;;;;;;8.15;5.68;;;;;;;36.47;6.45;95836.53;5110070;28;20039;-80
2023/02/17 10:47:27;;;;;;;8.05;5.15;;;;;;;37.03;6.43;95839.66;5108238;28;20563;-81
2023/02/17 10:49:55;;;;;;;4.68;4.07;;;;;;;36.39;5.97;95838.72;5110816;28;20459;-81
2023/02/17 10:52:22;;;;;;;7.80;5.25;;;;;;;36.22;6.30;95830.13;5109574;28;20078;-80
2023/02/17 10:55:02;;;;;;;7.30;5.43;;;;;;;36.88;6.40;95823.44;5116097;28;20023;-78
2023/02/17 10:57:31;;;;;;;12.93;8.90;;;;;;;36.80;6.31;95819.13;5108152;28;20676;-79
2023/02/17 10:59:57;;;;;;;8.57;6.18;;;;;;;36.89;6.42;95833.56;5110241;28;20063;-82
2023/02/17 11:02:41;;;;;;;8.10;6.00;;;;;;;37.60;5.61;95826.97;5111175;28;20023;-79
2023/02/17 11:05:07;;;;;;;11.30;5.97;;;;;;;36.78;6.24;95816.13;5109546;28;20110;-80
2023/02/17 11:07:40;;;;;;;7.90;5.82;;;;;;;36.89;6.26;95818.47;5111193;28;20062;-81
2023/02/17 11:10:27;;;;;;;8.25;4.43;;;;;;;36.77;5.92;95823.19;5108081;28;20047;-83
2023/02/17 11:12:54;;;;;;;7.03;4.10;;;;;;;36.39;5.56;95821.53;5109818;28;20031;-83
2023/02/17 11:15:41;;;;;;;7.65;4.65;;;;;;;36.81;5.83;95809.19;5109752;28;20492;-80
2023/02/17 11:18:10;;;;;;;6.72;4.80;;;;;;;36.45;5.69;95815.56;5107644;28;20396;-80
2023/02/17 11:20:37;;;;;;;7.57;5.10;;;;;;;36.40;6.23;95812.38;5108986;28;20466;-79
2023/02/17 11:23:04;;;;;;;6.53;3.92;;;;;;;34.76;6.50;95813.31;5107482;28;20019;-80
2023/02/17 11:25:32;;;;;;;6.38;4.57;;;;;;;34.86;6.45;95819.91;5108621;28;20122;-78
2023/02/17 11:28:21;;;;;;;11.63;5.20;;;;;;;34.69;6.77;95814.09;5108538;28;20039;-81
2023/02/17 11:30:52;;;;;;;7.38;4.60;;;;;;;34.95;6.94;95804.28;5106826;28;20012;-80
2023/02/17 11:33:29;;;;;;;7.15;4.97;;;;;;;34.89;6.73;95810.19;5109707;28;20031;-80
2023/02/17 11:35:55;;;;;;;7.60;4.63;;;;;;;34.68;6.96;95801.16;5106521;28;20074;-80
2023/02/17 11:38:24;;;;;;;7.95;5.18;;;;;;;35.26;7.04;95810.53;5108529;28;20483;-80